sensor_id;sensor_type;location;lat;lon;timestamp;pressure;altitude;pressure_sealevel;temperature;humidity
63535;BME280;55128;50.230;18.944;2023-04-09T00:03:41;99073.41;;;6.68;80.93
63535;BME280;55128;50.230;18.944;2023-04-09T00:08:42;99074.13;;;6.74;80.61
63535;BME280;55128;50.230;18.944;2023-04-09T00:13:42;99075.94;;;6.72;80.86
63535;BME280;55128;50.230;18.944;2023-04-09T00:18:42;99081.91;;;6.80;80.18
63535;BME280;55128;50.230;18.944;2023-04-09T00:23:42;99082.28;;;6.64;80.53
63535;BME280;55128;50.230;18.944;2023-04-09T00:28:43;99081.63;;;6.54;80.88
63535;BME280;55128;50.230;18.944;2023-04-09T00:33:43;99086.56;;;6.69;80.00
63535;BME280;55128;50.230;18.944;2023-04-09T00:38:44;99080.47;;;6.66;79.66
63535;BME280;55128;50.230;18.944;2023-04-09T00:43:45;99084.09;;;6.61;79.68
63535;BME280;55128;50.230;18.944;2023-04-09T00:48:45;99088.75;;;6.50;79.89
63535;BME280;55128;50.230;18.944;2023-04-09T00:53:46;99090.97;;;6.28;79.94
63535;BME280;55128;50.230;18.944;2023-04-09T00:58:47;99098.16;;;6.21;80.50
63535;BME280;55128;50.230;18.944;2023-04-09T01:03:47;99099.97;;;6.19;80.68
63535;BME280;55128;50.230;18.944;2023-04-09T01:24:46;99090.91;;;5.88;80.77
63535;BME280;55128;50.230;18.944;2023-04-09T01:29:53;99095.50;;;5.76;81.85
63535;BME280;55128;50.230;18.944;2023-04-09T01:34:54;99103.09;;;5.92;80.95
63535;BME280;55128;50.230;18.944;2023-04-09T01:39:55;99096.56;;;5.66;81.45
63535;BME280;55128;50.230;18.944;2023-04-09T01:44:57;99096.38;;;5.75;81.44
63535;BME280;55128;50.230;18.944;2023-04-09T01:49:58;99108.88;;;5.64;82.12
63535;BME280;55128;50.230;18.944;2023-04-09T01:54:58;99097.31;;;5.73;80.92
63535;BME280;55128;50.230;18.944;2023-04-09T01:59:58;99099.00;;;5.77;80.79
63535;BME280;55128;50.230;18.944;2023-04-09T02:05:00;99109.75;;;5.63;81.36
63535;BME280;55128;50.230;18.944;2023-04-09T02:10:04;99098.31;;;5.65;80.99
63535;BME280;55128;50.230;18.944;2023-04-09T02:15:06;99102.91;;;5.56;81.62
63535;BME280;55128;50.230;18.944;2023-04-09T02:20:07;99103.03;;;5.48;81.66
63535;BME280;55128;50.230;18.944;2023-04-09T02:25:08;99099.38;;;5.55;81.65
63535;BME280;55128;50.230;18.944;2023-04-09T02:30:08;99097.00;;;5.41;81.63
63535;BME280;55128;50.230;18.944;2023-04-09T02:35:09;99099.59;;;5.44;81.72
63535;BME280;55128;50.230;18.944;2023-04-09T02:40:09;99098.81;;;5.38;81.80
63535;BME280;55128;50.230;18.944;2023-04-09T02:45:10;99100.25;;;5.56;81.34
63535;BME280;55128;50.230;18.944;2023-04-09T02:50:10;99092.19;;;5.65;81.09
63535;BME280;55128;50.230;18.944;2023-04-09T02:55:11;99100.13;;;5.62;80.81
63535;BME280;55128;50.230;18.944;2023-04-09T03:00:12;99096.72;;;5.57;81.63
63535;BME280;55128;50.230;18.944;2023-04-09T03:05:12;99110.63;;;5.65;81.71
63535;BME280;55128;50.230;18.944;2023-04-09T03:10:13;99098.06;;;5.79;81.53
63535;BME280;55128;50.230;18.944;2023-04-09T03:15:13;99104.16;;;5.81;80.73
63535;BME280;55128;50.230;18.944;2023-04-09T03:20:13;99106.34;;;5.59;81.15
63535;BME280;55128;50.230;18.944;2023-04-09T03:25:14;99101.88;;;5.63;81.29
63535;BME280;55128;50.230;18.944;2023-04-09T03:30:14;99103.50;;;5.69;80.94
63535;BME280;55128;50.230;18.944;2023-04-09T03:35:15;99109.19;;;5.45;81.70
63535;BME280;55128;50.230;18.944;2023-04-09T03:40:15;99106.38;;;5.56;81.51
63535;BME280;55128;50.230;18.944;2023-04-09T03:45:16;99109.75;;;5.64;81.71
63535;BME280;55128;50.230;18.944;2023-04-09T03:50:16;99099.84;;;5.77;81.54
63535;BME280;55128;50.230;18.944;2023-04-09T03:55:16;99093.63;;;5.81;81.62
63535;BME280;55128;50.230;18.944;2023-04-09T04:00:17;99103.50;;;5.69;81.52
63535;BME280;55128;50.230;18.944;2023-04-09T04:05:17;99096.34;;;5.78;81.65
63535;BME280;55128;50.230;18.944;2023-04-09T04:10:18;99102.31;;;5.87;81.27
63535;BME280;55128;50.230;18.944;2023-04-09T04:15:18;99109.53;;;5.77;81.43
63535;BME280;55128;50.230;18.944;2023-04-09T04:20:19;99120.97;;;5.74;82.29
63535;BME280;55128;50.230;18.944;2023-04-09T04:25:19;99110.25;;;5.85;81.91
63535;BME280;55128;50.230;18.944;2023-04-09T04:30:20;99107.44;;;5.93;81.49
63535;BME280;55128;50.230;18.944;2023-04-09T04:35:21;99118.97;;;5.89;81.45
63535;BME280;55128;50.230;18.944;2023-04-09T04:40:21;99115.47;;;5.88;81.67
63535;BME280;55128;50.230;18.944;2023-04-09T04:45:22;99119.53;;;6.06;81.55
63535;BME280;55128;50.230;18.944;2023-04-09T04:50:22;99113.97;;;6.21;81.19
63535;BME280;55128;50.230;18.944;2023-04-09T04:55:22;99114.84;;;6.20;81.01
63535;BME280;55128;50.230;18.944;2023-04-09T05:00:23;99117.50;;;6.19;80.97
63535;BME280;55128;50.230;18.944;2023-04-09T05:05:23;99114.44;;;6.42;80.89
63535;BME280;55128;50.230;18.944;2023-04-09T05:10:23;99117.63;;;6.56;80.59
63535;BME280;55128;50.230;18.944;2023-04-09T05:15:24;99120.16;;;6.61;80.21
63535;BME280;55128;50.230;18.944;2023-04-09T05:20:26;99126.91;;;6.74;80.21
63535;BME280;55128;50.230;18.944;2023-04-09T05:25:26;99140.63;;;6.50;80.70
63535;BME280;55128;50.230;18.944;2023-04-09T05:30:27;99136.09;;;6.55;81.00
63535;BME280;55128;50.230;18.944;2023-04-09T05:35:27;99136.66;;;6.71;80.51
63535;BME280;55128;50.230;18.944;2023-04-09T05:40:27;99140.75;;;6.84;80.17
63535;BME280;55128;50.230;18.944;2023-04-09T05:45:28;99136.31;;;6.86;80.24
63535;BME280;55128;50.230;18.944;2023-04-09T05:50:28;99139.44;;;7.04;79.75
63535;BME280;55128;50.230;18.944;2023-04-09T05:55:30;99145.50;;;7.07;80.34
63535;BME280;55128;50.230;18.944;2023-04-09T06:00:31;99152.06;;;7.28;79.47
63535;BME280;55128;50.230;18.944;2023-04-09T06:05:31;99154.81;;;7.24;79.30
63535;BME280;55128;50.230;18.944;2023-04-09T06:10:32;99157.44;;;7.24;79.63
63535;BME280;55128;50.230;18.944;2023-04-09T06:15:32;99161.28;;;7.48;79.10
63535;BME280;55128;50.230;18.944;2023-04-09T06:20:33;99161.03;;;7.57;79.03
63535;BME280;55128;50.230;18.944;2023-04-09T06:25:34;99161.75;;;7.64;78.55
63535;BME280;55128;50.230;18.944;2023-04-09T06:30:35;99172.41;;;7.95;78.22
63535;BME280;55128;50.230;18.944;2023-04-09T06:35:36;99170.72;;;7.92;78.54
63535;BME280;55128;50.230;18.944;2023-04-09T06:40:37;99173.34;;;7.92;77.76
63535;BME280;55128;50.230;18.944;2023-04-09T06:45:38;99170.66;;;8.27;76.88
63535;BME280;55128;50.230;18.944;2023-04-09T06:50:38;99184.38;;;8.41;76.74
63535;BME280;55128;50.230;18.944;2023-04-09T06:55:38;99186.88;;;8.47;76.85
63535;BME280;55128;50.230;18.944;2023-04-09T07:00:39;99185.84;;;8.83;75.98
63535;BME280;55128;50.230;18.944;2023-04-09T07:05:39;99180.38;;;8.89;75.03
63535;BME280;55128;50.230;18.944;2023-04-09T07:10:40;99182.00;;;9.21;74.19
63535;BME280;55128;50.230;18.944;2023-04-09T07:15:40;99182.84;;;9.23;74.32
63535;BME280;55128;50.230;18.944;2023-04-09T07:20:41;99191.13;;;9.41;72.70
63535;BME280;55128;50.230;18.944;2023-04-09T07:25:41;99191.09;;;9.42;72.39
63535;BME280;55128;50.230;18.944;2023-04-09T07:30:42;99194.47;;;9.46;72.06
63535;BME280;55128;50.230;18.944;2023-04-09T07:35:43;99200.09;;;9.65;72.05
63535;BME280;55128;50.230;18.944;2023-04-09T07:40:43;99197.78;;;9.81;71.93
63535;BME280;55128;50.230;18.944;2023-04-09T07:45:44;99190.31;;;9.92;71.08
63535;BME280;55128;50.230;18.944;2023-04-09T07:50:44;99194.63;;;9.95;71.28
63535;BME280;55128;50.230;18.944;2023-04-09T07:55:44;99192.00;;;9.95;71.02
63535;BME280;55128;50.230;18.944;2023-04-09T08:00:46;99206.50;;;10.09;70.78
63535;BME280;55128;50.230;18.944;2023-04-09T08:05:47;99196.88;;;10.07;71.42
63535;BME280;55128;50.230;18.944;2023-04-09T08:10:47;99190.72;;;10.06;71.54
63535;BME280;55128;50.230;18.944;2023-04-09T08:15:48;99197.09;;;9.74;71.60
63535;BME280;55128;50.230;18.944;2023-04-09T08:20:48;99207.56;;;9.79;71.58
63535;BME280;55128;50.230;18.944;2023-04-09T08:25:48;99207.75;;;9.99;71.56
63535;BME280;55128;50.230;18.944;2023-04-09T08:30:49;99213.63;;;9.82;71.66
63535;BME280;55128;50.230;18.944;2023-04-09T08:35:49;99217.25;;;10.06;71.83
63535;BME280;55128;50.230;18.944;2023-04-09T08:40:49;99216.94;;;10.16;71.92
63535;BME280;55128;50.230;18.944;2023-04-09T08:45:50;99212.56;;;10.40;70.97
63535;BME280;55128;50.230;18.944;2023-04-09T08:50:51;99211.69;;;10.64;70.28
63535;BME280;55128;50.230;18.944;2023-04-09T08:55:51;99222.47;;;10.60;69.80
63535;BME280;55128;50.230;18.944;2023-04-09T09:00:51;99215.91;;;10.70;69.66
63535;BME280;55128;50.230;18.944;2023-04-09T09:05:52;99212.91;;;10.79;69.39
63535;BME280;55128;50.230;18.944;2023-04-09T09:10:52;99215.38;;;10.84;68.94
63535;BME280;55128;50.230;18.944;2023-04-09T09:15:54;99220.19;;;10.74;68.62
63535;BME280;55128;50.230;18.944;2023-04-09T09:21:11;99215.81;;;10.72;69.69
63535;BME280;55128;50.230;18.944;2023-04-09T09:26:17;99220.59;;;10.87;69.95
63535;BME280;55128;50.230;18.944;2023-04-09T09:31:20;99223.53;;;10.79;69.48
63535;BME280;55128;50.230;18.944;2023-04-09T09:36:33;99219.81;;;11.07;68.80
63535;BME280;55128;50.230;18.944;2023-04-09T09:41:36;99234.16;;;11.03;68.77
63535;BME280;55128;50.230;18.944;2023-04-09T09:46:50;99221.06;;;11.20;69.67
63535;BME280;55128;50.230;18.944;2023-04-09T09:51:55;99225.31;;;11.48;68.38
63535;BME280;55128;50.230;18.944;2023-04-09T09:57:15;99213.81;;;11.92;66.83
63535;BME280;55128;50.230;18.944;2023-04-09T10:02:41;99214.03;;;11.85;66.04
63535;BME280;55128;50.230;18.944;2023-04-09T10:08:10;99221.91;;;11.66;65.65
63535;BME280;55128;50.230;18.944;2023-04-09T10:13:57;99215.97;;;11.60;67.26
63535;BME280;55128;50.230;18.944;2023-04-09T10:19:01;99208.97;;;12.01;66.16
63535;BME280;55128;50.230;18.944;2023-04-09T10:24:28;99208.84;;;12.04;65.93
63535;BME280;55128;50.230;18.944;2023-04-09T10:29:31;99196.81;;;11.96;65.31
63535;BME280;55128;50.230;18.944;2023-04-09T10:34:41;99204.06;;;12.54;64.57
63535;BME280;55128;50.230;18.944;2023-04-09T10:39:47;99206.59;;;12.95;61.76
63535;BME280;55128;50.230;18.944;2023-04-09T10:50:26;99196.00;;;12.74;61.69
63535;BME280;55128;50.230;18.944;2023-04-09T10:55:47;99192.66;;;12.90;61.08
63535;BME280;55128;50.230;18.944;2023-04-09T11:01:08;99189.69;;;12.96;59.63
63535;BME280;55128;50.230;18.944;2023-04-09T11:23:10;99191.44;;;13.89;57.81
63535;BME280;55128;50.230;18.944;2023-04-09T11:28:41;99195.16;;;14.38;55.54
63535;BME280;55128;50.230;18.944;2023-04-09T11:34:34;99188.19;;;14.69;54.16
63535;BME280;55128;50.230;18.944;2023-04-09T11:51:15;99191.50;;;14.74;54.62
63535;BME280;55128;50.230;18.944;2023-04-09T11:56:38;99187.41;;;15.01;53.41
63535;BME280;55128;50.230;18.944;2023-04-09T12:01:49;99180.75;;;14.92;53.75
63535;BME280;55128;50.230;18.944;2023-04-09T12:07:00;99183.28;;;15.27;51.47
63535;BME280;55128;50.230;18.944;2023-04-09T12:12:01;99177.09;;;15.88;50.97
63535;BME280;55128;50.230;18.944;2023-04-09T12:17:02;99178.78;;;15.43;50.94
63535;BME280;55128;50.230;18.944;2023-04-09T12:22:02;99178.28;;;15.52;49.91
63535;BME280;55128;50.230;18.944;2023-04-09T12:27:03;99179.03;;;16.01;49.34
63535;BME280;55128;50.230;18.944;2023-04-09T12:32:03;99178.88;;;15.42;49.45
63535;BME280;55128;50.230;18.944;2023-04-09T12:37:04;99172.59;;;15.11;49.33
63535;BME280;55128;50.230;18.944;2023-04-09T12:47:14;99170.81;;;14.94;48.71
63535;BME280;55128;50.230;18.944;2023-04-09T12:52:15;99175.19;;;14.46;51.69
63535;BME280;55128;50.230;18.944;2023-04-09T12:57:17;99164.97;;;14.87;50.29
63535;BME280;55128;50.230;18.944;2023-04-09T13:02:18;99166.94;;;15.00;49.56
63535;BME280;55128;50.230;18.944;2023-04-09T13:07:19;99161.00;;;15.10;45.71
63535;BME280;55128;50.230;18.944;2023-04-09T13:12:19;99168.13;;;14.62;45.23
63535;BME280;55128;50.230;18.944;2023-04-09T13:17:20;99157.22;;;14.14;45.12
63535;BME280;55128;50.230;18.944;2023-04-09T13:22:21;99156.34;;;14.31;44.13
63535;BME280;55128;50.230;18.944;2023-04-09T13:27:21;99150.97;;;14.49;42.91
63535;BME280;55128;50.230;18.944;2023-04-09T13:32:21;99153.88;;;13.76;45.06
63535;BME280;55128;50.230;18.944;2023-04-09T13:37:23;99152.69;;;13.82;46.75
63535;BME280;55128;50.230;18.944;2023-04-09T13:42:23;99160.59;;;13.66;46.41
63535;BME280;55128;50.230;18.944;2023-04-09T13:47:24;99160.44;;;13.32;49.07
63535;BME280;55128;50.230;18.944;2023-04-09T13:52:24;99153.09;;;12.61;51.32
63535;BME280;55128;50.230;18.944;2023-04-09T13:57:25;99151.41;;;12.19;50.70
63535;BME280;55128;50.230;18.944;2023-04-09T14:02:26;99160.34;;;11.98;51.72
63535;BME280;55128;50.230;18.944;2023-04-09T14:07:28;99160.03;;;11.83;50.72
63535;BME280;55128;50.230;18.944;2023-04-09T14:12:28;99161.53;;;11.91;49.00
63535;BME280;55128;50.230;18.944;2023-04-09T14:17:28;99165.06;;;11.91;50.05
63535;BME280;55128;50.230;18.944;2023-04-09T14:22:29;99152.44;;;11.74;50.54
63535;BME280;55128;50.230;18.944;2023-04-09T14:27:30;99140.78;;;11.99;52.08
63535;BME280;55128;50.230;18.944;2023-04-09T14:32:30;99133.91;;;11.93;52.56
63535;BME280;55128;50.230;18.944;2023-04-09T14:37:31;99131.97;;;12.17;50.51
63535;BME280;55128;50.230;18.944;2023-04-09T14:42:31;99129.66;;;12.10;51.27
63535;BME280;55128;50.230;18.944;2023-04-09T14:47:31;99135.78;;;11.91;51.60
63535;BME280;55128;50.230;18.944;2023-04-09T14:52:33;99125.16;;;11.91;52.57
63535;BME280;55128;50.230;18.944;2023-04-09T14:57:33;99131.66;;;12.04;52.43
63535;BME280;55128;50.230;18.944;2023-04-09T15:02:34;99127.97;;;11.66;54.47
63535;BME280;55128;50.230;18.944;2023-04-09T15:07:34;99129.94;;;11.61;53.60
63535;BME280;55128;50.230;18.944;2023-04-09T15:12:34;99125.69;;;11.57;56.15
63535;BME280;55128;50.230;18.944;2023-04-09T15:17:35;99123.63;;;11.63;56.57
63535;BME280;55128;50.230;18.944;2023-04-09T15:22:35;99124.19;;;11.72;57.10
63535;BME280;55128;50.230;18.944;2023-04-09T15:27:36;99124.25;;;11.70;55.98
63535;BME280;55128;50.230;18.944;2023-04-09T15:32:36;99124.69;;;11.59;55.32
63535;BME280;55128;50.230;18.944;2023-04-09T15:37:36;99123.25;;;11.08;57.12
63535;BME280;55128;50.230;18.944;2023-04-09T15:42:37;99128.81;;;11.24;58.29
63535;BME280;55128;50.230;18.944;2023-04-09T15:47:37;99128.88;;;11.65;57.54
63535;BME280;55128;50.230;18.944;2023-04-09T15:52:37;99123.25;;;11.73;57.49
63535;BME280;55128;50.230;18.944;2023-04-09T15:57:38;99134.22;;;11.43;57.21
63535;BME280;55128;50.230;18.944;2023-04-09T16:02:38;99138.47;;;11.26;58.08
63535;BME280;55128;50.230;18.944;2023-04-09T16:07:39;99136.97;;;11.19;59.18
63535;BME280;55128;50.230;18.944;2023-04-09T16:12:40;99145.41;;;11.07;58.75
63535;BME280;55128;50.230;18.944;2023-04-09T16:17:40;99142.72;;;11.08;58.84
63535;BME280;55128;50.230;18.944;2023-04-09T16:22:41;99140.25;;;11.04;59.53
63535;BME280;55128;50.230;18.944;2023-04-09T16:27:42;99140.25;;;11.04;59.61
63535;BME280;55128;50.230;18.944;2023-04-09T16:32:42;99142.22;;;10.99;59.82
63535;BME280;55128;50.230;18.944;2023-04-09T16:37:42;99148.22;;;11.04;60.18
63535;BME280;55128;50.230;18.944;2023-04-09T16:42:43;99147.94;;;10.88;60.48
63535;BME280;55128;50.230;18.944;2023-04-09T16:47:46;99154.41;;;10.81;60.94
63535;BME280;55128;50.230;18.944;2023-04-09T16:52:47;99159.03;;;10.52;62.70
63535;BME280;55128;50.230;18.944;2023-04-09T16:57:48;99158.06;;;10.78;62.08
63535;BME280;55128;50.230;18.944;2023-04-09T17:02:48;99165.97;;;10.56;61.89
63535;BME280;55128;50.230;18.944;2023-04-09T17:07:49;99171.78;;;10.66;62.35
63535;BME280;55128;50.230;18.944;2023-04-09T17:12:49;99178.13;;;10.62;62.98
63535;BME280;55128;50.230;18.944;2023-04-09T17:17:50;99180.22;;;10.54;63.02
63535;BME280;55128;50.230;18.944;2023-04-09T17:22:52;99182.97;;;10.50;63.63
63535;BME280;55128;50.230;18.944;2023-04-09T17:27:52;99180.97;;;10.32;64.24
63535;BME280;55128;50.230;18.944;2023-04-09T17:32:53;99187.19;;;10.33;64.79
63535;BME280;55128;50.230;18.944;2023-04-09T17:37:53;99192.34;;;10.10;65.14
63535;BME280;55128;50.230;18.944;2023-04-09T17:42:54;99193.91;;;10.16;65.94
63535;BME280;55128;50.230;18.944;2023-04-09T17:47:55;99196.03;;;10.06;65.91
63535;BME280;55128;50.230;18.944;2023-04-09T17:52:56;99207.84;;;9.96;66.36
63535;BME280;55128;50.230;18.944;2023-04-09T17:57:56;99201.44;;;9.77;66.09
63535;BME280;55128;50.230;18.944;2023-04-09T18:02:56;99213.34;;;9.65;67.14
63535;BME280;55128;50.230;18.944;2023-04-09T18:07:57;99211.03;;;9.54;68.16
63535;BME280;55128;50.230;18.944;2023-04-09T18:12:58;99214.81;;;9.45;67.72
63535;BME280;55128;50.230;18.944;2023-04-09T18:17:59;99213.53;;;9.30;69.04
63535;BME280;55128;50.230;18.944;2023-04-09T18:22:59;99229.66;;;9.23;69.71
63535;BME280;55128;50.230;18.944;2023-04-09T18:27:59;99222.03;;;9.12;70.16
63535;BME280;55128;50.230;18.944;2023-04-09T18:33:00;99232.00;;;9.04;70.97
63535;BME280;55128;50.230;18.944;2023-04-09T18:38:00;99241.25;;;8.89;70.53
63535;BME280;55128;50.230;18.944;2023-04-09T18:43:00;99245.19;;;8.75;71.12
63535;BME280;55128;50.230;18.944;2023-04-09T18:48:01;99249.28;;;8.56;71.91
63535;BME280;55128;50.230;18.944;2023-04-09T18:53:01;99245.22;;;8.41;70.93
63535;BME280;55128;50.230;18.944;2023-04-09T18:58:03;99244.75;;;8.25;71.29
63535;BME280;55128;50.230;18.944;2023-04-09T19:03:07;99254.06;;;8.07;71.72
63535;BME280;55128;50.230;18.944;2023-04-09T19:08:08;99242.97;;;7.91;71.34
63535;BME280;55128;50.230;18.944;2023-04-09T19:13:08;99248.72;;;7.73;71.79
63535;BME280;55128;50.230;18.944;2023-04-09T19:18:09;99252.56;;;7.59;72.43
63535;BME280;55128;50.230;18.944;2023-04-09T19:23:09;99255.72;;;7.38;72.93
63535;BME280;55128;50.230;18.944;2023-04-09T19:28:10;99258.53;;;7.30;72.85
63535;BME280;55128;50.230;18.944;2023-04-09T19:33:10;99255.56;;;7.04;74.13
63535;BME280;55128;50.230;18.944;2023-04-09T19:38:11;99256.31;;;7.10;73.38
63535;BME280;55128;50.230;18.944;2023-04-09T19:43:12;99268.78;;;7.04;72.89
63535;BME280;55128;50.230;18.944;2023-04-09T19:48:12;99262.84;;;6.92;75.02
63535;BME280;55128;50.230;18.944;2023-04-09T19:53:12;99275.34;;;6.84;75.50
63535;BME280;55128;50.230;18.944;2023-04-09T19:58:13;99264.84;;;6.81;75.55
63535;BME280;55128;50.230;18.944;2023-04-09T20:03:14;99270.84;;;6.89;74.88
63535;BME280;55128;50.230;18.944;2023-04-09T20:08:14;99274.59;;;6.77;76.58
63535;BME280;55128;50.230;18.944;2023-04-09T20:13:15;99270.06;;;6.84;76.21
63535;BME280;55128;50.230;18.944;2023-04-09T20:18:16;99268.25;;;6.86;75.52
63535;BME280;55128;50.230;18.944;2023-04-09T20:23:16;99269.44;;;6.71;76.75
63535;BME280;55128;50.230;18.944;2023-04-09T20:28:16;99266.97;;;6.64;77.31
63535;BME280;55128;50.230;18.944;2023-04-09T20:33:17;99270.22;;;6.76;77.66
63535;BME280;55128;50.230;18.944;2023-04-09T20:38:17;99264.59;;;6.93;77.12
63535;BME280;55128;50.230;18.944;2023-04-09T20:43:19;99275.16;;;6.93;76.53
63535;BME280;55128;50.230;18.944;2023-04-09T20:48:20;99278.50;;;7.01;77.13
63535;BME280;55128;50.230;18.944;2023-04-09T20:53:20;99280.16;;;7.06;77.18
63535;BME280;55128;50.230;18.944;2023-04-09T20:58:21;99278.31;;;7.11;77.18
63535;BME280;55128;50.230;18.944;2023-04-09T21:03:21;99276.84;;;6.96;77.65
63535;BME280;55128;50.230;18.944;2023-04-09T21:08:21;99285.44;;;7.06;77.21
63535;BME280;55128;50.230;18.944;2023-04-09T21:13:22;99283.44;;;7.17;77.18
63535;BME280;55128;50.230;18.944;2023-04-09T21:18:23;99278.31;;;7.11;77.88
63535;BME280;55128;50.230;18.944;2023-04-09T21:23:23;99287.84;;;7.18;77.30
63535;BME280;55128;50.230;18.944;2023-04-09T21:28:24;99274.59;;;7.21;77.76
63535;BME280;55128;50.230;18.944;2023-04-09T21:33:25;99282.38;;;7.27;77.39
63535;BME280;55128;50.230;18.944;2023-04-09T21:38:25;99288.41;;;7.32;77.38
63535;BME280;55128;50.230;18.944;2023-04-09T21:43:26;99285.78;;;7.32;77.89
63535;BME280;55128;50.230;18.944;2023-04-09T21:48:29;99288.34;;;7.35;78.41
63535;BME280;55128;50.230;18.944;2023-04-09T21:53:30;99288.06;;;7.48;77.91
63535;BME280;55128;50.230;18.944;2023-04-09T21:58:30;99283.75;;;7.44;78.84
63535;BME280;55128;50.230;18.944;2023-04-09T22:03:30;99287.03;;;7.55;78.39
63535;BME280;55128;50.230;18.944;2023-04-09T22:08:31;99289.53;;;7.61;79.12
63535;BME280;55128;50.230;18.944;2023-04-09T22:13:32;99286.66;;;7.70;78.91
63535;BME280;55128;50.230;18.944;2023-04-09T22:18:35;99289.00;;;7.83;79.11
63535;BME280;55128;50.230;18.944;2023-04-09T22:23:36;99287.28;;;7.82;79.74
63535;BME280;55128;50.230;18.944;2023-04-09T22:28:36;99284.59;;;7.83;80.03
63535;BME280;55128;50.230;18.944;2023-04-09T22:33:37;99284.56;;;7.85;80.21
63535;BME280;55128;50.230;18.944;2023-04-09T22:38:37;99285.19;;;7.96;79.68
63535;BME280;55128;50.230;18.944;2023-04-09T22:43:38;99286.00;;;7.98;79.54
63535;BME280;55128;50.230;18.944;2023-04-09T22:48:38;99286.84;;;8.00;79.42
63535;BME280;55128;50.230;18.944;2023-04-09T22:53:40;99285.19;;;7.96;79.93
63535;BME280;55128;50.230;18.944;2023-04-09T22:58:40;99284.00;;;8.08;79.49
63535;BME280;55128;50.230;18.944;2023-04-09T23:03:41;99277.94;;;8.03;79.62
63535;BME280;55128;50.230;18.944;2023-04-09T23:08:41;99278.75;;;8.06;79.83
63535;BME280;55128;50.230;18.944;2023-04-09T23:13:42;99274.38;;;8.05;80.21
63535;BME280;55128;50.230;18.944;2023-04-09T23:18:42;99277.97;;;8.01;80.68
63535;BME280;55128;50.230;18.944;2023-04-09T23:23:43;99270.81;;;8.06;80.51
63535;BME280;55128;50.230;18.944;2023-04-09T23:28:43;99274.88;;;8.20;79.89
63535;BME280;55128;50.230;18.944;2023-04-09T23:33:43;99291.75;;;8.15;80.28
63535;BME280;55128;50.230;18.944;2023-04-09T23:38:44;99276.88;;;8.11;80.24
63535;BME280;55128;50.230;18.944;2023-04-09T23:43:46;99273.41;;;8.08;80.22
63535;BME280;55128;50.230;18.944;2023-04-09T23:48:46;99269.69;;;8.16;80.23
63535;BME280;55128;50.230;18.944;2023-04-09T23:53:46;99259.03;;;8.18;80.03
63535;BME280;55128;50.230;18.944;2023-04-09T23:58:47;99253.84;;;8.15;80.10
